sensor_id;sensor_type;location;lat;lon;timestamp;temperature;humidity
11221;DHT22;8517;53.546;10.104;2022-12-29T00:00:15;10.20;99.90
11221;DHT22;8517;53.546;10.104;2022-12-29T00:02:42;10.20;99.90
11221;DHT22;8517;53.546;10.104;2022-12-29T00:05:09;10.20;99.90
11221;DHT22;8517;53.546;10.104;2022-12-29T00:07:36;10.30;99.90
11221;DHT22;8517;53.546;10.104;2022-12-29T00:10:05;10.30;99.90
11221;DHT22;8517;53.546;10.104;2022-12-29T00:12:32;10.30;99.90
11221;DHT22;8517;53.546;10.104;2022-12-29T00:15:13;10.30;99.90
11221;DHT22;8517;53.546;10.104;2022-12-29T00:17:57;10.30;99.90
11221;DHT22;8517;53.546;10.104;2022-12-29T00:20:24;10.40;99.90
11221;DHT22;8517;53.546;10.104;2022-12-29T00:23:08;10.40;99.90
11221;DHT22;8517;53.546;10.104;2022-12-29T00:25:54;10.40;99.90
11221;DHT22;8517;53.546;10.104;2022-12-29T00:28:39;10.50;99.90
11221;DHT22;8517;53.546;10.104;2022-12-29T00:31:19;10.50;99.90
11221;DHT22;8517;53.546;10.104;2022-12-29T00:34:04;10.50;99.90
11221;DHT22;8517;53.546;10.104;2022-12-29T00:36:48;10.60;99.90
11221;DHT22;8517;53.546;10.104;2022-12-29T00:39:17;10.60;99.90
11221;DHT22;8517;53.546;10.104;2022-12-29T00:42:04;10.70;99.90
11221;DHT22;8517;53.546;10.104;2022-12-29T00:44:45;10.70;99.90
11221;DHT22;8517;53.546;10.104;2022-12-29T00:47:12;10.70;99.90
11221;DHT22;8517;53.546;10.104;2022-12-29T00:49:39;10.70;99.90
11221;DHT22;8517;53.546;10.104;2022-12-29T00:52:06;10.80;99.90
11221;DHT22;8517;53.546;10.104;2022-12-29T00:54:35;10.80;99.90
11221;DHT22;8517;53.546;10.104;2022-12-29T00:57:05;10.80;99.90
11221;DHT22;8517;53.546;10.104;2022-12-29T00:59:32;10.90;99.90
11221;DHT22;8517;53.546;10.104;2022-12-29T01:02:20;10.90;99.90
11221;DHT22;8517;53.546;10.104;2022-12-29T01:04:58;10.90;99.90
11221;DHT22;8517;53.546;10.104;2022-12-29T01:07:38;10.90;99.90
11221;DHT22;8517;53.546;10.104;2022-12-29T01:10:06;11.00;99.90
11221;DHT22;8517;53.546;10.104;2022-12-29T01:12:42;11.00;99.90
11221;DHT22;8517;53.546;10.104;2022-12-29T01:15:12;11.00;99.90
11221;DHT22;8517;53.546;10.104;2022-12-29T01:17:39;11.00;99.90
11221;DHT22;8517;53.546;10.104;2022-12-29T01:20:07;11.00;99.90
11221;DHT22;8517;53.546;10.104;2022-12-29T01:22:33;11.00;99.90
11221;DHT22;8517;53.546;10.104;2022-12-29T01:25:00;11.00;99.90
11221;DHT22;8517;53.546;10.104;2022-12-29T01:27:27;11.00;99.90
11221;DHT22;8517;53.546;10.104;2022-12-29T01:29:56;11.00;99.90
11221;DHT22;8517;53.546;10.104;2022-12-29T01:32:22;11.10;99.90
11221;DHT22;8517;53.546;10.104;2022-12-29T01:34:49;11.10;99.90
11221;DHT22;8517;53.546;10.104;2022-12-29T01:37:16;11.10;99.90
11221;DHT22;8517;53.546;10.104;2022-12-29T01:39:43;11.10;99.90
11221;DHT22;8517;53.546;10.104;2022-12-29T01:42:14;11.10;99.90
11221;DHT22;8517;53.546;10.104;2022-12-29T01:44:54;11.10;99.90
11221;DHT22;8517;53.546;10.104;2022-12-29T01:47:27;11.10;99.90
11221;DHT22;8517;53.546;10.104;2022-12-29T01:49:58;11.10;99.90
11221;DHT22;8517;53.546;10.104;2022-12-29T01:52:30;11.20;99.90
11221;DHT22;8517;53.546;10.104;2022-12-29T01:54:59;11.20;99.90
11221;DHT22;8517;53.546;10.104;2022-12-29T01:57:31;11.20;99.90
11221;DHT22;8517;53.546;10.104;2022-12-29T02:00:03;11.10;99.90
11221;DHT22;8517;53.546;10.104;2022-12-29T02:02:32;11.10;99.90
11221;DHT22;8517;53.546;10.104;2022-12-29T02:05:02;11.10;99.90
11221;DHT22;8517;53.546;10.104;2022-12-29T02:07:31;11.00;99.90
11221;DHT22;8517;53.546;10.104;2022-12-29T02:10:00;11.00;99.90
11221;DHT22;8517;53.546;10.104;2022-12-29T02:12:27;11.00;99.90
11221;DHT22;8517;53.546;10.104;2022-12-29T02:14:58;11.00;99.90
11221;DHT22;8517;53.546;10.104;2022-12-29T02:17:41;11.00;99.90
11221;DHT22;8517;53.546;10.104;2022-12-29T02:20:32;11.00;99.90
11221;DHT22;8517;53.546;10.104;2022-12-29T02:23:30;11.00;99.90
11221;DHT22;8517;53.546;10.104;2022-12-29T02:26:28;11.00;99.90
11221;DHT22;8517;53.546;10.104;2022-12-29T02:29:35;11.00;99.90
11221;DHT22;8517;53.546;10.104;2022-12-29T02:32:13;11.00;99.90
11221;DHT22;8517;53.546;10.104;2022-12-29T02:34:50;11.00;99.90
11221;DHT22;8517;53.546;10.104;2022-12-29T02:37:23;11.00;99.90
11221;DHT22;8517;53.546;10.104;2022-12-29T02:39:56;11.00;99.90
11221;DHT22;8517;53.546;10.104;2022-12-29T02:42:33;11.00;99.90
11221;DHT22;8517;53.546;10.104;2022-12-29T02:45:04;11.00;99.90
11221;DHT22;8517;53.546;10.104;2022-12-29T02:47:36;11.10;99.90
11221;DHT22;8517;53.546;10.104;2022-12-29T02:50:07;11.10;99.90
11221;DHT22;8517;53.546;10.104;2022-12-29T02:52:39;11.10;99.90
11221;DHT22;8517;53.546;10.104;2022-12-29T02:55:08;11.10;99.90
11221;DHT22;8517;53.546;10.104;2022-12-29T02:57:35;11.10;99.90
11221;DHT22;8517;53.546;10.104;2022-12-29T03:00:05;11.10;99.90
11221;DHT22;8517;53.546;10.104;2022-12-29T03:02:57;11.10;99.90
11221;DHT22;8517;53.546;10.104;2022-12-29T03:08:31;11.20;99.90
11221;DHT22;8517;53.546;10.104;2022-12-29T03:11:03;11.20;99.90
11221;DHT22;8517;53.546;10.104;2022-12-29T03:13:37;11.20;99.90
11221;DHT22;8517;53.546;10.104;2022-12-29T03:16:27;11.20;99.90
11221;DHT22;8517;53.546;10.104;2022-12-29T03:19:06;11.20;99.90
11221;DHT22;8517;53.546;10.104;2022-12-29T03:21:37;11.20;99.90
11221;DHT22;8517;53.546;10.104;2022-12-29T03:24:25;11.30;99.90
11221;DHT22;8517;53.546;10.104;2022-12-29T03:26:55;11.30;99.90
11221;DHT22;8517;53.546;10.104;2022-12-29T03:29:24;11.30;99.90
11221;DHT22;8517;53.546;10.104;2022-12-29T03:31:53;11.40;99.90
11221;DHT22;8517;53.546;10.104;2022-12-29T03:34:22;11.40;99.90
11221;DHT22;8517;53.546;10.104;2022-12-29T03:36:54;11.40;99.90
11221;DHT22;8517;53.546;10.104;2022-12-29T03:39:24;11.50;99.90
11221;DHT22;8517;53.546;10.104;2022-12-29T03:41:55;11.50;99.90
11221;DHT22;8517;53.546;10.104;2022-12-29T03:44:31;11.50;99.90
11221;DHT22;8517;53.546;10.104;2022-12-29T03:46:58;11.50;99.90
11221;DHT22;8517;53.546;10.104;2022-12-29T03:49:27;11.50;99.90
11221;DHT22;8517;53.546;10.104;2022-12-29T03:51:54;11.50;99.90
11221;DHT22;8517;53.546;10.104;2022-12-29T03:54:21;11.50;99.90
11221;DHT22;8517;53.546;10.104;2022-12-29T03:56:48;11.50;99.90
11221;DHT22;8517;53.546;10.104;2022-12-29T03:59:15;11.50;99.90
11221;DHT22;8517;53.546;10.104;2022-12-29T04:01:42;11.50;99.90
11221;DHT22;8517;53.546;10.104;2022-12-29T04:04:09;11.50;99.90
11221;DHT22;8517;53.546;10.104;2022-12-29T04:06:37;11.50;99.90
11221;DHT22;8517;53.546;10.104;2022-12-29T04:09:04;11.50;99.90
11221;DHT22;8517;53.546;10.104;2022-12-29T04:11:31;11.50;99.90
11221;DHT22;8517;53.546;10.104;2022-12-29T04:13:58;11.50;99.90
11221;DHT22;8517;53.546;10.104;2022-12-29T04:16:25;11.50;99.90
11221;DHT22;8517;53.546;10.104;2022-12-29T04:18:51;11.50;99.90
11221;DHT22;8517;53.546;10.104;2022-12-29T04:21:18;11.60;99.90
11221;DHT22;8517;53.546;10.104;2022-12-29T04:23:46;11.60;99.90
11221;DHT22;8517;53.546;10.104;2022-12-29T04:26:13;11.60;99.90
11221;DHT22;8517;53.546;10.104;2022-12-29T04:28:40;11.60;99.90
11221;DHT22;8517;53.546;10.104;2022-12-29T04:31:07;11.60;99.90
11221;DHT22;8517;53.546;10.104;2022-12-29T04:33:33;11.60;99.90
11221;DHT22;8517;53.546;10.104;2022-12-29T04:36:00;11.60;99.90
11221;DHT22;8517;53.546;10.104;2022-12-29T04:38:27;11.60;99.90
11221;DHT22;8517;53.546;10.104;2022-12-29T04:40:58;11.60;99.90
11221;DHT22;8517;53.546;10.104;2022-12-29T04:43:25;11.60;99.90
11221;DHT22;8517;53.546;10.104;2022-12-29T04:45:52;11.50;99.90
11221;DHT22;8517;53.546;10.104;2022-12-29T04:48:18;11.50;99.90
11221;DHT22;8517;53.546;10.104;2022-12-29T04:50:47;11.50;99.90
11221;DHT22;8517;53.546;10.104;2022-12-29T04:53:15;11.60;99.90
11221;DHT22;8517;53.546;10.104;2022-12-29T04:55:41;11.50;99.90
11221;DHT22;8517;53.546;10.104;2022-12-29T04:58:10;11.50;99.90
11221;DHT22;8517;53.546;10.104;2022-12-29T05:00:36;11.60;99.90
11221;DHT22;8517;53.546;10.104;2022-12-29T05:03:03;11.60;99.90
11221;DHT22;8517;53.546;10.104;2022-12-29T05:05:30;11.60;99.90
11221;DHT22;8517;53.546;10.104;2022-12-29T05:07:57;11.60;99.90
11221;DHT22;8517;53.546;10.104;2022-12-29T05:10:24;11.60;99.90
11221;DHT22;8517;53.546;10.104;2022-12-29T05:12:51;11.70;99.90
11221;DHT22;8517;53.546;10.104;2022-12-29T05:15:19;11.60;99.90
11221;DHT22;8517;53.546;10.104;2022-12-29T05:17:46;11.60;99.90
11221;DHT22;8517;53.546;10.104;2022-12-29T05:20:13;11.60;99.90
11221;DHT22;8517;53.546;10.104;2022-12-29T05:22:40;11.60;99.90
11221;DHT22;8517;53.546;10.104;2022-12-29T05:25:08;11.60;99.90
11221;DHT22;8517;53.546;10.104;2022-12-29T05:27:35;11.60;99.90
11221;DHT22;8517;53.546;10.104;2022-12-29T05:30:02;11.50;99.90
11221;DHT22;8517;53.546;10.104;2022-12-29T05:32:30;11.50;99.90
11221;DHT22;8517;53.546;10.104;2022-12-29T05:34:57;11.50;99.90
11221;DHT22;8517;53.546;10.104;2022-12-29T05:37:23;11.50;99.90
11221;DHT22;8517;53.546;10.104;2022-12-29T05:39:50;11.50;99.90
11221;DHT22;8517;53.546;10.104;2022-12-29T05:42:17;11.50;99.90
11221;DHT22;8517;53.546;10.104;2022-12-29T05:44:45;11.50;99.90
11221;DHT22;8517;53.546;10.104;2022-12-29T05:47:15;11.60;99.90
11221;DHT22;8517;53.546;10.104;2022-12-29T05:49:43;11.60;99.90
11221;DHT22;8517;53.546;10.104;2022-12-29T05:52:10;11.50;99.90
11221;DHT22;8517;53.546;10.104;2022-12-29T05:54:37;11.60;99.90
11221;DHT22;8517;53.546;10.104;2022-12-29T05:57:04;11.60;99.90
11221;DHT22;8517;53.546;10.104;2022-12-29T05:59:31;11.60;99.90
11221;DHT22;8517;53.546;10.104;2022-12-29T06:02:00;11.70;99.90
11221;DHT22;8517;53.546;10.104;2022-12-29T06:04:26;11.70;99.90
11221;DHT22;8517;53.546;10.104;2022-12-29T06:06:55;11.70;99.90
11221;DHT22;8517;53.546;10.104;2022-12-29T06:09:21;11.80;99.90
11221;DHT22;8517;53.546;10.104;2022-12-29T06:11:48;11.80;99.90
11221;DHT22;8517;53.546;10.104;2022-12-29T06:14:15;11.80;99.90
11221;DHT22;8517;53.546;10.104;2022-12-29T06:16:42;11.90;99.90
11221;DHT22;8517;53.546;10.104;2022-12-29T06:19:09;12.00;99.90
11221;DHT22;8517;53.546;10.104;2022-12-29T06:21:35;12.00;99.90
11221;DHT22;8517;53.546;10.104;2022-12-29T06:24:05;12.00;99.90
11221;DHT22;8517;53.546;10.104;2022-12-29T06:26:32;12.10;99.90
11221;DHT22;8517;53.546;10.104;2022-12-29T06:28:58;12.10;99.90
11221;DHT22;8517;53.546;10.104;2022-12-29T06:31:25;12.10;99.90
11221;DHT22;8517;53.546;10.104;2022-12-29T06:33:52;12.10;99.90
11221;DHT22;8517;53.546;10.104;2022-12-29T06:36:19;12.10;99.90
11221;DHT22;8517;53.546;10.104;2022-12-29T06:38:45;12.10;99.90
11221;DHT22;8517;53.546;10.104;2022-12-29T06:41:14;12.10;99.90
11221;DHT22;8517;53.546;10.104;2022-12-29T06:43:40;12.10;99.90
11221;DHT22;8517;53.546;10.104;2022-12-29T06:46:07;12.10;99.90
11221;DHT22;8517;53.546;10.104;2022-12-29T06:48:34;12.10;99.90
11221;DHT22;8517;53.546;10.104;2022-12-29T06:51:01;12.10;99.90
11221;DHT22;8517;53.546;10.104;2022-12-29T06:53:28;12.10;99.90
11221;DHT22;8517;53.546;10.104;2022-12-29T06:55:55;12.10;99.90
11221;DHT22;8517;53.546;10.104;2022-12-29T06:58:23;12.10;99.90
11221;DHT22;8517;53.546;10.104;2022-12-29T07:00:50;12.10;99.90
11221;DHT22;8517;53.546;10.104;2022-12-29T07:03:17;12.20;99.90
11221;DHT22;8517;53.546;10.104;2022-12-29T07:05:44;12.10;99.90
11221;DHT22;8517;53.546;10.104;2022-12-29T07:08:10;12.10;99.90
11221;DHT22;8517;53.546;10.104;2022-12-29T07:10:37;12.20;99.90
11221;DHT22;8517;53.546;10.104;2022-12-29T07:13:04;12.10;99.90
11221;DHT22;8517;53.546;10.104;2022-12-29T07:15:34;12.20;99.90
11221;DHT22;8517;53.546;10.104;2022-12-29T07:18:02;12.20;99.90
11221;DHT22;8517;53.546;10.104;2022-12-29T07:20:29;12.20;99.90
11221;DHT22;8517;53.546;10.104;2022-12-29T07:22:56;12.20;99.90
11221;DHT22;8517;53.546;10.104;2022-12-29T07:25:22;12.20;99.90
11221;DHT22;8517;53.546;10.104;2022-12-29T07:27:49;12.20;99.90
11221;DHT22;8517;53.546;10.104;2022-12-29T07:30:16;12.20;99.90
11221;DHT22;8517;53.546;10.104;2022-12-29T07:32:44;12.20;99.90
11221;DHT22;8517;53.546;10.104;2022-12-29T07:35:11;12.20;99.90
11221;DHT22;8517;53.546;10.104;2022-12-29T07:37:38;12.20;99.90
11221;DHT22;8517;53.546;10.104;2022-12-29T07:40:06;12.20;99.90
11221;DHT22;8517;53.546;10.104;2022-12-29T07:42:33;12.20;99.90
11221;DHT22;8517;53.546;10.104;2022-12-29T07:45:00;12.20;99.90
11221;DHT22;8517;53.546;10.104;2022-12-29T07:47:27;12.10;99.90
11221;DHT22;8517;53.546;10.104;2022-12-29T07:49:55;12.10;99.90
11221;DHT22;8517;53.546;10.104;2022-12-29T07:52:21;12.00;99.90
11221;DHT22;8517;53.546;10.104;2022-12-29T07:54:49;12.00;99.90
11221;DHT22;8517;53.546;10.104;2022-12-29T07:57:15;11.90;99.90
11221;DHT22;8517;53.546;10.104;2022-12-29T07:59:42;11.90;99.90
11221;DHT22;8517;53.546;10.104;2022-12-29T08:02:10;11.80;99.90
11221;DHT22;8517;53.546;10.104;2022-12-29T08:04:37;11.70;99.90
11221;DHT22;8517;53.546;10.104;2022-12-29T08:07:05;11.70;99.90
11221;DHT22;8517;53.546;10.104;2022-12-29T08:09:32;11.60;99.90
11221;DHT22;8517;53.546;10.104;2022-12-29T08:11:59;11.50;99.90
11221;DHT22;8517;53.546;10.104;2022-12-29T08:14:25;11.40;99.90
11221;DHT22;8517;53.546;10.104;2022-12-29T08:16:54;11.30;99.90
11221;DHT22;8517;53.546;10.104;2022-12-29T08:19:21;11.30;99.90
11221;DHT22;8517;53.546;10.104;2022-12-29T08:21:50;11.30;99.90
11221;DHT22;8517;53.546;10.104;2022-12-29T08:24:18;11.20;99.90
11221;DHT22;8517;53.546;10.104;2022-12-29T08:26:45;11.20;99.90
11221;DHT22;8517;53.546;10.104;2022-12-29T08:29:15;11.20;99.90
11221;DHT22;8517;53.546;10.104;2022-12-29T08:31:42;11.20;99.90
11221;DHT22;8517;53.546;10.104;2022-12-29T08:34:09;11.20;99.90
11221;DHT22;8517;53.546;10.104;2022-12-29T08:36:39;11.20;99.90
11221;DHT22;8517;53.546;10.104;2022-12-29T08:39:07;11.30;99.90
11221;DHT22;8517;53.546;10.104;2022-12-29T08:41:35;11.30;99.90
11221;DHT22;8517;53.546;10.104;2022-12-29T08:44:04;11.30;99.90
11221;DHT22;8517;53.546;10.104;2022-12-29T08:46:31;11.30;99.90
11221;DHT22;8517;53.546;10.104;2022-12-29T08:48:59;11.40;99.90
11221;DHT22;8517;53.546;10.104;2022-12-29T08:51:25;11.40;99.90
11221;DHT22;8517;53.546;10.104;2022-12-29T08:53:52;11.40;99.90
11221;DHT22;8517;53.546;10.104;2022-12-29T08:56:19;11.40;99.90
11221;DHT22;8517;53.546;10.104;2022-12-29T08:58:47;11.50;99.90
11221;DHT22;8517;53.546;10.104;2022-12-29T09:01:14;11.50;99.90
11221;DHT22;8517;53.546;10.104;2022-12-29T09:03:41;11.50;99.90
11221;DHT22;8517;53.546;10.104;2022-12-29T09:06:09;11.60;99.90
11221;DHT22;8517;53.546;10.104;2022-12-29T09:08:36;11.70;99.90
11221;DHT22;8517;53.546;10.104;2022-12-29T09:11:07;11.70;99.90
11221;DHT22;8517;53.546;10.104;2022-12-29T09:13:36;11.70;99.90
11221;DHT22;8517;53.546;10.104;2022-12-29T09:16:11;11.80;99.90
11221;DHT22;8517;53.546;10.104;2022-12-29T09:18:55;11.80;99.90
11221;DHT22;8517;53.546;10.104;2022-12-29T09:21:32;11.80;99.90
11221;DHT22;8517;53.546;10.104;2022-12-29T09:23:59;11.80;99.90
11221;DHT22;8517;53.546;10.104;2022-12-29T09:26:32;11.90;99.90
11221;DHT22;8517;53.546;10.104;2022-12-29T09:28:59;11.90;99.90
11221;DHT22;8517;53.546;10.104;2022-12-29T09:31:29;12.00;99.90
11221;DHT22;8517;53.546;10.104;2022-12-29T09:33:59;12.10;99.90
11221;DHT22;8517;53.546;10.104;2022-12-29T09:36:30;12.20;99.90
11221;DHT22;8517;53.546;10.104;2022-12-29T09:38:57;12.20;99.90
11221;DHT22;8517;53.546;10.104;2022-12-29T09:41:28;12.20;99.90
11221;DHT22;8517;53.546;10.104;2022-12-29T09:44:05;12.20;99.90
11221;DHT22;8517;53.546;10.104;2022-12-29T09:46:36;12.20;99.90
11221;DHT22;8517;53.546;10.104;2022-12-29T09:49:17;12.20;99.90
11221;DHT22;8517;53.546;10.104;2022-12-29T09:51:50;12.20;99.90
11221;DHT22;8517;53.546;10.104;2022-12-29T09:54:34;12.30;99.90
11221;DHT22;8517;53.546;10.104;2022-12-29T09:57:04;12.50;99.90
11221;DHT22;8517;53.546;10.104;2022-12-29T09:59:38;12.60;99.90
11221;DHT22;8517;53.546;10.104;2022-12-29T10:02:23;12.60;99.90
11221;DHT22;8517;53.546;10.104;2022-12-29T10:04:53;12.80;99.90
11221;DHT22;8517;53.546;10.104;2022-12-29T10:07:29;13.00;99.90
11221;DHT22;8517;53.546;10.104;2022-12-29T10:10:03;13.20;99.90
11221;DHT22;8517;53.546;10.104;2022-12-29T10:12:36;13.40;99.90
11221;DHT22;8517;53.546;10.104;2022-12-29T10:15:12;13.70;99.90
11221;DHT22;8517;53.546;10.104;2022-12-29T10:17:48;14.00;99.90
11221;DHT22;8517;53.546;10.104;2022-12-29T10:20:25;14.10;99.90
11221;DHT22;8517;53.546;10.104;2022-12-29T10:23:14;14.10;99.90
11221;DHT22;8517;53.546;10.104;2022-12-29T10:25:45;14.00;99.90
11221;DHT22;8517;53.546;10.104;2022-12-29T10:28:22;13.90;99.90
11221;DHT22;8517;53.546;10.104;2022-12-29T10:30:50;14.00;99.90
11221;DHT22;8517;53.546;10.104;2022-12-29T10:33:21;14.00;99.90
11221;DHT22;8517;53.546;10.104;2022-12-29T10:35:50;14.00;99.90
11221;DHT22;8517;53.546;10.104;2022-12-29T10:38:22;13.90;99.90
11221;DHT22;8517;53.546;10.104;2022-12-29T10:40:54;13.90;99.90
11221;DHT22;8517;53.546;10.104;2022-12-29T10:43:26;13.80;99.90
11221;DHT22;8517;53.546;10.104;2022-12-29T10:45:56;13.70;99.90
11221;DHT22;8517;53.546;10.104;2022-12-29T10:48:28;13.70;99.90
11221;DHT22;8517;53.546;10.104;2022-12-29T10:50:58;13.70;99.90
11221;DHT22;8517;53.546;10.104;2022-12-29T10:53:33;13.80;99.90
11221;DHT22;8517;53.546;10.104;2022-12-29T10:56:04;13.80;99.90
11221;DHT22;8517;53.546;10.104;2022-12-29T10:58:36;13.70;99.90
11221;DHT22;8517;53.546;10.104;2022-12-29T11:01:03;13.70;99.90
11221;DHT22;8517;53.546;10.104;2022-12-29T11:03:59;13.60;99.90
11221;DHT22;8517;53.546;10.104;2022-12-29T11:06:29;13.60;99.90
11221;DHT22;8517;53.546;10.104;2022-12-29T11:08:58;13.50;99.90
11221;DHT22;8517;53.546;10.104;2022-12-29T11:11:27;13.50;99.90
11221;DHT22;8517;53.546;10.104;2022-12-29T11:14:03;13.40;99.90
11221;DHT22;8517;53.546;10.104;2022-12-29T11:16:38;13.40;99.90
11221;DHT22;8517;53.546;10.104;2022-12-29T11:19:20;13.40;99.90
11221;DHT22;8517;53.546;10.104;2022-12-29T11:21:47;13.40;99.90
11221;DHT22;8517;53.546;10.104;2022-12-29T11:24:20;13.40;99.90
11221;DHT22;8517;53.546;10.104;2022-12-29T11:26:52;13.40;99.90
11221;DHT22;8517;53.546;10.104;2022-12-29T11:29:36;13.30;99.90
11221;DHT22;8517;53.546;10.104;2022-12-29T11:32:11;13.30;99.90
11221;DHT22;8517;53.546;10.104;2022-12-29T11:34:40;13.30;99.90
11221;DHT22;8517;53.546;10.104;2022-12-29T11:37:11;13.30;99.90
11221;DHT22;8517;53.546;10.104;2022-12-29T11:39:41;13.20;99.90
11221;DHT22;8517;53.546;10.104;2022-12-29T11:42:16;13.20;99.90
11221;DHT22;8517;53.546;10.104;2022-12-29T11:44:44;13.20;99.90
11221;DHT22;8517;53.546;10.104;2022-12-29T11:47:23;13.20;99.90
11221;DHT22;8517;53.546;10.104;2022-12-29T11:49:55;13.20;99.90
11221;DHT22;8517;53.546;10.104;2022-12-29T11:52:25;13.20;99.90
11221;DHT22;8517;53.546;10.104;2022-12-29T11:54:54;13.10;99.90
11221;DHT22;8517;53.546;10.104;2022-12-29T11:57:23;13.10;99.90
11221;DHT22;8517;53.546;10.104;2022-12-29T11:59:51;13.10;99.90
11221;DHT22;8517;53.546;10.104;2022-12-29T12:02:40;13.10;99.90
11221;DHT22;8517;53.546;10.104;2022-12-29T12:05:19;13.00;99.90
11221;DHT22;8517;53.546;10.104;2022-12-29T12:07:49;12.90;99.90
11221;DHT22;8517;53.546;10.104;2022-12-29T12:10:21;12.80;99.90
11221;DHT22;8517;53.546;10.104;2022-12-29T12:12:54;12.80;99.90
11221;DHT22;8517;53.546;10.104;2022-12-29T12:15:27;12.70;99.90
11221;DHT22;8517;53.546;10.104;2022-12-29T12:18:00;12.80;99.90
11221;DHT22;8517;53.546;10.104;2022-12-29T12:20:38;12.80;99.90
11221;DHT22;8517;53.546;10.104;2022-12-29T12:23:25;12.70;99.90
11221;DHT22;8517;53.546;10.104;2022-12-29T12:26:01;12.80;99.90
11221;DHT22;8517;53.546;10.104;2022-12-29T12:28:37;12.70;99.90
11221;DHT22;8517;53.546;10.104;2022-12-29T12:31:16;12.70;99.90
11221;DHT22;8517;53.546;10.104;2022-12-29T12:33:46;12.70;99.90
11221;DHT22;8517;53.546;10.104;2022-12-29T12:36:37;12.70;99.90
11221;DHT22;8517;53.546;10.104;2022-12-29T12:39:33;12.70;99.90
11221;DHT22;8517;53.546;10.104;2022-12-29T12:42:20;12.70;99.90
11221;DHT22;8517;53.546;10.104;2022-12-29T12:46:20;12.70;99.90
11221;DHT22;8517;53.546;10.104;2022-12-29T12:49:03;12.80;99.90
11221;DHT22;8517;53.546;10.104;2022-12-29T12:51:42;12.80;99.90
11221;DHT22;8517;53.546;10.104;2022-12-29T12:54:39;12.80;99.90
11221;DHT22;8517;53.546;10.104;2022-12-29T12:57:17;12.80;99.90
11221;DHT22;8517;53.546;10.104;2022-12-29T12:59:52;12.80;99.90
11221;DHT22;8517;53.546;10.104;2022-12-29T13:02:34;12.80;99.90
11221;DHT22;8517;53.546;10.104;2022-12-29T13:05:24;12.80;99.90
11221;DHT22;8517;53.546;10.104;2022-12-29T13:08:34;12.70;99.90
11221;DHT22;8517;53.546;10.104;2022-12-29T13:11:20;12.60;99.90
11221;DHT22;8517;53.546;10.104;2022-12-29T13:14:12;12.60;99.90
11221;DHT22;8517;53.546;10.104;2022-12-29T13:16:53;12.60;99.90
11221;DHT22;8517;53.546;10.104;2022-12-29T13:19:30;12.60;99.90
11221;DHT22;8517;53.546;10.104;2022-12-29T13:22:07;12.70;99.90
11221;DHT22;8517;53.546;10.104;2022-12-29T13:24:48;12.70;99.90
11221;DHT22;8517;53.546;10.104;2022-12-29T13:27:25;12.80;99.90
11221;DHT22;8517;53.546;10.104;2022-12-29T13:29:59;12.90;99.90
11221;DHT22;8517;53.546;10.104;2022-12-29T13:32:37;12.90;99.90
11221;DHT22;8517;53.546;10.104;2022-12-29T13:35:24;12.90;99.90
11221;DHT22;8517;53.546;10.104;2022-12-29T13:38:12;12.90;99.90
11221;DHT22;8517;53.546;10.104;2022-12-29T13:40:50;13.00;99.90
11221;DHT22;8517;53.546;10.104;2022-12-29T13:43:22;13.00;99.90
11221;DHT22;8517;53.546;10.104;2022-12-29T13:46:00;13.10;99.90
11221;DHT22;8517;53.546;10.104;2022-12-29T13:48:36;13.10;99.90
11221;DHT22;8517;53.546;10.104;2022-12-29T13:51:08;13.00;99.90
11221;DHT22;8517;53.546;10.104;2022-12-29T13:53:48;13.00;99.90
11221;DHT22;8517;53.546;10.104;2022-12-29T13:56:33;13.10;99.90
11221;DHT22;8517;53.546;10.104;2022-12-29T13:59:05;13.10;99.90
11221;DHT22;8517;53.546;10.104;2022-12-29T14:01:41;13.10;99.90
11221;DHT22;8517;53.546;10.104;2022-12-29T14:04:13;13.10;99.90
11221;DHT22;8517;53.546;10.104;2022-12-29T14:06:40;13.20;99.90
11221;DHT22;8517;53.546;10.104;2022-12-29T14:09:33;13.10;99.90
11221;DHT22;8517;53.546;10.104;2022-12-29T14:12:22;13.10;99.90
11221;DHT22;8517;53.546;10.104;2022-12-29T14:14:53;13.10;99.90
11221;DHT22;8517;53.546;10.104;2022-12-29T14:17:21;13.00;99.90
11221;DHT22;8517;53.546;10.104;2022-12-29T14:19:52;12.90;99.90
11221;DHT22;8517;53.546;10.104;2022-12-29T14:22:24;12.90;99.90
11221;DHT22;8517;53.546;10.104;2022-12-29T14:24:51;12.80;99.90
11221;DHT22;8517;53.546;10.104;2022-12-29T14:27:51;12.70;99.90
11221;DHT22;8517;53.546;10.104;2022-12-29T14:30:51;12.60;99.90
11221;DHT22;8517;53.546;10.104;2022-12-29T14:33:24;12.20;99.90
11221;DHT22;8517;53.546;10.104;2022-12-29T14:35:53;11.90;99.90
11221;DHT22;8517;53.546;10.104;2022-12-29T14:38:25;11.60;99.90
11221;DHT22;8517;53.546;10.104;2022-12-29T14:41:29;11.40;99.90
11221;DHT22;8517;53.546;10.104;2022-12-29T14:44:01;11.10;99.90
11221;DHT22;8517;53.546;10.104;2022-12-29T14:46:54;11.00;99.90
11221;DHT22;8517;53.546;10.104;2022-12-29T14:49:24;10.80;99.90
11221;DHT22;8517;53.546;10.104;2022-12-29T14:51:53;10.70;99.90
11221;DHT22;8517;53.546;10.104;2022-12-29T14:54:41;10.70;99.90
11221;DHT22;8517;53.546;10.104;2022-12-29T14:57:21;10.60;99.90
11221;DHT22;8517;53.546;10.104;2022-12-29T14:59:54;10.60;99.90
11221;DHT22;8517;53.546;10.104;2022-12-29T15:02:24;10.50;99.90
11221;DHT22;8517;53.546;10.104;2022-12-29T15:04:54;10.50;99.90
11221;DHT22;8517;53.546;10.104;2022-12-29T15:07:30;10.50;99.90
11221;DHT22;8517;53.546;10.104;2022-12-29T15:10:05;10.50;99.90
11221;DHT22;8517;53.546;10.104;2022-12-29T15:12:38;10.50;99.90
11221;DHT22;8517;53.546;10.104;2022-12-29T15:15:18;10.50;99.90
11221;DHT22;8517;53.546;10.104;2022-12-29T15:17:45;10.50;99.90
11221;DHT22;8517;53.546;10.104;2022-12-29T15:20:22;10.50;99.90
11221;DHT22;8517;53.546;10.104;2022-12-29T15:22:53;10.50;99.90
11221;DHT22;8517;53.546;10.104;2022-12-29T15:25:22;10.50;99.90
11221;DHT22;8517;53.546;10.104;2022-12-29T15:27:51;10.50;99.90
11221;DHT22;8517;53.546;10.104;2022-12-29T15:30:26;10.40;99.90
11221;DHT22;8517;53.546;10.104;2022-12-29T15:32:53;10.50;99.90
11221;DHT22;8517;53.546;10.104;2022-12-29T15:35:27;10.50;99.90
11221;DHT22;8517;53.546;10.104;2022-12-29T15:38:19;10.40;99.90
11221;DHT22;8517;53.546;10.104;2022-12-29T15:40:52;10.40;99.90
11221;DHT22;8517;53.546;10.104;2022-12-29T15:43:42;10.40;99.90
11221;DHT22;8517;53.546;10.104;2022-12-29T15:46:12;10.50;99.90
11221;DHT22;8517;53.546;10.104;2022-12-29T15:48:39;10.50;99.90
11221;DHT22;8517;53.546;10.104;2022-12-29T15:51:19;10.50;99.90
11221;DHT22;8517;53.546;10.104;2022-12-29T15:53:47;10.50;99.90
11221;DHT22;8517;53.546;10.104;2022-12-29T15:56:19;10.50;99.90
11221;DHT22;8517;53.546;10.104;2022-12-29T15:58:48;10.50;99.90
11221;DHT22;8517;53.546;10.104;2022-12-29T16:01:20;10.60;99.90
11221;DHT22;8517;53.546;10.104;2022-12-29T16:03:50;10.60;99.90
11221;DHT22;8517;53.546;10.104;2022-12-29T16:06:29;10.60;99.90